createdAt,value
2022-08-27T00:00:52.968Z,8.02
2022-08-27T00:03:39.482Z,7.70
2022-08-27T00:06:27.359Z,7.38
2022-08-27T00:09:14.353Z,7.85
2022-08-27T00:12:04.343Z,9.23
2022-08-27T00:14:51.025Z,23.23
2022-08-27T00:17:37.681Z,17.83
2022-08-27T00:20:25.933Z,10.73
2022-08-27T00:23:12.498Z,9.77
2022-08-27T00:25:59.322Z,10.95
2022-08-27T00:28:48.198Z,11.32
2022-08-27T00:31:34.741Z,11.55
2022-08-27T00:34:23.133Z,11.18
2022-08-27T00:37:09.873Z,13.65
2022-08-27T00:39:56.207Z,13.18
2022-08-27T00:42:45.855Z,13.27
2022-08-27T00:45:38.476Z,12.32
2022-08-27T00:48:28.406Z,13.35
2022-08-27T00:51:14.806Z,16.40
2022-08-27T00:54:02.451Z,23.05
2022-08-27T00:56:51.819Z,16.02
2022-08-27T00:59:39.130Z,14.05
2022-08-27T01:02:30.559Z,13.90
2022-08-27T01:05:20.821Z,13.85
2022-08-27T01:08:13.401Z,12.60
2022-08-27T01:11:01.745Z,12.85
2022-08-27T01:14:00.147Z,12.48
2022-08-27T01:16:51.557Z,12.32
2022-08-27T01:19:43.566Z,12.93
2022-08-27T01:22:37.222Z,13.07
2022-08-27T01:25:25.745Z,12.02
2022-08-27T01:28:13.267Z,13.48
2022-08-27T01:30:59.526Z,12.98
2022-08-27T01:33:56.264Z,12.75
2022-08-27T01:36:42.956Z,11.48
2022-08-27T01:39:29.145Z,11.52
2022-08-27T01:42:20.846Z,11.68
2022-08-27T01:45:09.733Z,11.80
2022-08-27T01:47:56.805Z,11.90
2022-08-27T01:50:43.107Z,11.15
2022-08-27T01:53:29.496Z,11.25
2022-08-27T01:56:16.484Z,9.30
2022-08-27T01:59:04.237Z,10.13
2022-08-27T02:01:51.220Z,10.20
2022-08-27T02:04:37.585Z,9.75
2022-08-27T02:07:23.860Z,9.73
2022-08-27T02:10:12.843Z,9.70
2022-08-27T02:12:59.790Z,10.02
2022-08-27T02:15:48.025Z,9.23
2022-08-27T02:18:38.334Z,10.38
2022-08-27T02:21:27.978Z,10.20
2022-08-27T02:24:14.905Z,9.80
2022-08-27T02:27:01.879Z,9.10
2022-08-27T02:29:48.987Z,9.75
2022-08-27T02:32:37.930Z,8.35
2022-08-27T02:35:25.214Z,9.20
2022-08-27T02:38:12.719Z,8.75
2022-08-27T02:40:59.378Z,9.07
2022-08-27T02:43:45.686Z,9.27
2022-08-27T02:46:32.173Z,8.98
2022-08-27T02:49:20.166Z,8.60
2022-08-27T02:52:06.895Z,8.10
2022-08-27T02:54:53.677Z,6.85
2022-08-27T02:57:40.491Z,7.55
2022-08-27T03:00:28.611Z,6.90
2022-08-27T03:03:15.445Z,8.35
2022-08-27T03:06:03.005Z,6.88
2022-08-27T03:08:52.295Z,7.03
2022-08-27T03:11:39.956Z,6.10
2022-08-27T03:14:26.573Z,6.65
2022-08-27T03:17:30.314Z,5.30
2022-08-27T03:20:17.015Z,6.13
2022-08-27T03:23:04.898Z,5.90
2022-08-27T03:25:53.721Z,6.90
2022-08-27T03:28:40.201Z,6.35
2022-08-27T03:31:28.296Z,5.50
2022-08-27T03:34:14.746Z,5.78
2022-08-27T03:37:06.319Z,5.80
2022-08-27T03:39:54.877Z,5.43
2022-08-27T03:42:41.910Z,6.18
2022-08-27T03:45:28.561Z,5.60
2022-08-27T03:48:16.048Z,5.65
2022-08-27T03:51:06.838Z,5.18
2022-08-27T03:53:53.287Z,5.20
2022-08-27T03:56:41.552Z,10.38
2022-08-27T03:59:27.832Z,8.30
2022-08-27T04:02:14.982Z,5.97
2022-08-27T04:05:01.702Z,5.38
2022-08-27T04:07:48.059Z,5.55
2022-08-27T04:10:35.031Z,5.53
2022-08-27T04:13:24.103Z,5.80
2022-08-27T04:16:10.478Z,5.97
2022-08-27T04:18:57.134Z,6.20
2022-08-27T04:21:43.495Z,6.18
2022-08-27T04:24:31.402Z,7.28
2022-08-27T04:27:17.860Z,11.73
2022-08-27T04:30:09.290Z,6.70
2022-08-27T04:32:55.774Z,6.90
2022-08-27T04:35:42.743Z,8.68
2022-08-27T04:38:29.466Z,8.45
2022-08-27T04:41:23.027Z,9.23
2022-08-27T04:44:11.329Z,11.23
2022-08-27T04:47:01.220Z,10.27
2022-08-27T04:49:47.594Z,11.07
2022-08-27T04:52:33.834Z,12.68
2022-08-27T04:55:28.086Z,11.50
2022-08-27T04:58:14.998Z,11.93
2022-08-27T05:01:01.789Z,12.52
2022-08-27T05:03:49.656Z,14.90
2022-08-27T05:06:37.322Z,14.98
2022-08-27T05:09:24.645Z,14.35
2022-08-27T05:12:13.470Z,14.13
2022-08-27T05:14:59.689Z,13.80
2022-08-27T05:17:46.088Z,15.43
2022-08-27T05:20:34.305Z,15.45
2022-08-27T05:23:21.198Z,15.15
2022-08-27T05:26:08.839Z,15.07
2022-08-27T05:28:56.096Z,16.05
2022-08-27T05:31:43.248Z,17.00
2022-08-27T05:34:29.845Z,17.55
2022-08-27T05:37:18.054Z,16.55
2022-08-27T05:40:06.227Z,17.48
2022-08-27T05:42:53.044Z,16.23
2022-08-27T05:45:42.082Z,16.75
2022-08-27T05:48:28.438Z,16.98
2022-08-27T05:51:25.509Z,19.08
2022-08-27T05:54:19.446Z,15.23
2022-08-27T05:57:06.762Z,18.27
2022-08-27T06:00:11.478Z,18.65
2022-08-27T06:03:02.205Z,16.95
2022-08-27T06:05:49.010Z,17.05
2022-08-27T06:08:35.489Z,15.23
2022-08-27T06:11:23.515Z,17.65
2022-08-27T06:14:10.668Z,16.27
2022-08-27T06:16:58.563Z,18.35
2022-08-27T06:19:45.748Z,16.05
2022-08-27T06:22:31.915Z,15.75
2022-08-27T06:25:18.485Z,13.75
2022-08-27T06:28:06.694Z,15.52
2022-08-27T06:30:54.279Z,15.80
2022-08-27T06:33:42.174Z,14.88
2022-08-27T06:36:29.594Z,14.23
2022-08-27T06:39:16.970Z,16.42
2022-08-27T06:42:04.029Z,14.70
2022-08-27T06:44:51.974Z,14.57
2022-08-27T06:47:38.567Z,14.13
2022-08-27T06:50:27.312Z,13.35
2022-08-27T06:53:14.449Z,14.27
2022-08-27T06:56:00.677Z,12.75
2022-08-27T06:58:48.459Z,11.88
2022-08-27T07:01:38.521Z,14.40
2022-08-27T07:04:32.444Z,13.10
2022-08-27T07:07:28.062Z,12.18
2022-08-27T07:10:21.830Z,11.82
2022-08-27T07:13:08.103Z,11.45
2022-08-27T07:15:55.682Z,11.05
2022-08-27T07:18:43.746Z,11.00
2022-08-27T07:21:30.672Z,11.48
2022-08-27T07:24:17.518Z,9.55
2022-08-27T07:27:03.926Z,11.55
2022-08-27T07:29:50.479Z,11.77
2022-08-27T07:32:37.018Z,11.57
2022-08-27T07:35:24.703Z,12.15
2022-08-27T07:38:12.269Z,9.68
2022-08-27T07:40:59.477Z,11.77
2022-08-27T07:44:03.410Z,8.90
2022-08-27T07:46:50.948Z,9.40
2022-08-27T07:49:37.625Z,11.63
2022-08-27T07:52:26.662Z,11.27
2022-08-27T07:55:13.839Z,9.55
2022-08-27T07:58:00.826Z,9.18
2022-08-27T08:00:47.689Z,11.20
2022-08-27T08:03:34.213Z,9.52
2022-08-27T08:06:20.438Z,8.93
2022-08-27T08:09:08.490Z,10.93
2022-08-27T08:11:57.938Z,10.27
2022-08-27T08:14:44.470Z,8.95
2022-08-27T08:17:30.701Z,8.70
2022-08-27T08:20:27.612Z,8.98
2022-08-27T08:23:25.837Z,9.95
2022-08-27T08:26:14.219Z,8.95
2022-08-27T08:29:04.472Z,11.00
2022-08-27T08:31:50.711Z,11.02
2022-08-27T08:34:37.276Z,10.60
2022-08-27T08:37:24.531Z,10.05
2022-08-27T08:40:12.911Z,7.60
2022-08-27T08:43:03.345Z,9.73
2022-08-27T08:45:50.859Z,9.77
2022-08-27T08:48:41.285Z,9.57
2022-08-27T08:51:34.197Z,9.73
2022-08-27T08:54:24.104Z,10.73
2022-08-27T08:57:20.545Z,10.52
2022-08-27T09:00:13.376Z,10.27
2022-08-27T09:02:59.982Z,10.55
2022-08-27T09:05:54.714Z,11.07
2022-08-27T09:08:43.905Z,10.13
2022-08-27T09:11:40.515Z,10.23
2022-08-27T09:14:36.880Z,9.52
2022-08-27T09:17:25.695Z,8.90
2022-08-27T09:20:13.792Z,9.15
2022-08-27T09:23:11.974Z,8.57
2022-08-27T09:25:58.237Z,10.55
2022-08-27T09:29:02.005Z,9.50
2022-08-27T09:31:55.615Z,9.95
2022-08-27T09:34:45.693Z,10.30
2022-08-27T09:37:34.543Z,9.55
2022-08-27T09:40:32.009Z,10.25
2022-08-27T09:43:23.437Z,9.35
2022-08-27T09:46:20.417Z,9.98
2022-08-27T09:49:12.540Z,10.20
2022-08-27T09:52:00.132Z,10.13
2022-08-27T09:54:48.153Z,10.30
2022-08-27T09:57:37.434Z,9.57
2022-08-27T10:00:37.819Z,9.20
2022-08-27T10:03:24.374Z,8.40
2022-08-27T10:06:11.761Z,8.18
2022-08-27T10:09:07.127Z,8.60
2022-08-27T10:12:01.086Z,8.43
2022-08-27T10:14:51.289Z,8.18
2022-08-27T10:17:46.975Z,7.97
2022-08-27T10:20:42.749Z,7.72
2022-08-27T10:23:36.269Z,7.78
2022-08-27T10:26:33.158Z,8.25
2022-08-27T10:29:32.118Z,8.05
2022-08-27T10:32:32.946Z,7.72
2022-08-27T10:35:22.843Z,7.00
2022-08-27T10:38:17.747Z,6.65
2022-08-27T10:41:12.800Z,7.05
2022-08-27T10:44:20.098Z,6.82
2022-08-27T10:47:21.217Z,6.65
2022-08-27T10:50:12.677Z,6.50
2022-08-27T10:53:02.757Z,6.07
2022-08-27T10:55:52.953Z,6.95
2022-08-27T10:58:47.217Z,6.90
2022-08-27T11:01:44.690Z,6.32
2022-08-27T11:04:36.185Z,9.25
2022-08-27T11:07:26.789Z,6.68
2022-08-27T11:10:21.057Z,6.70
2022-08-27T11:13:13.929Z,6.70
2022-08-27T11:16:02.920Z,6.28
2022-08-27T11:18:55.188Z,6.47
2022-08-27T11:21:47.659Z,6.10
2022-08-27T11:24:49.730Z,5.53
2022-08-27T11:27:38.386Z,6.30
2022-08-27T11:30:30.490Z,6.55
2022-08-27T11:33:22.003Z,6.25
2022-08-27T11:36:28.832Z,6.97
2022-08-27T11:39:30.066Z,9.20
2022-08-27T11:42:26.532Z,8.23
2022-08-27T11:45:19.601Z,6.63
2022-08-27T11:48:18.766Z,6.85
2022-08-27T11:51:08.798Z,6.45
2022-08-27T11:54:00.217Z,6.68
2022-08-27T11:56:46.661Z,7.00
2022-08-27T11:59:35.117Z,6.97
2022-08-27T12:02:25.907Z,6.18
2022-08-27T12:05:26.840Z,6.78
2022-08-27T12:08:18.874Z,6.82
2022-08-27T12:11:25.017Z,7.05
2022-08-27T12:14:25.612Z,6.15
2022-08-27T12:17:21.076Z,5.97
2022-08-27T12:20:18.646Z,5.68
2022-08-27T12:23:34.937Z,5.43
2022-08-27T12:26:33.375Z,5.95
2022-08-27T12:29:31.332Z,6.20
2022-08-27T12:32:27.994Z,7.22
2022-08-27T12:35:17.364Z,7.03
2022-08-27T12:38:13.465Z,6.63
2022-08-27T12:41:05.490Z,6.40
2022-08-27T12:44:04.833Z,6.53
2022-08-27T12:46:54.657Z,6.43
2022-08-27T12:49:48.306Z,6.45
2022-08-27T12:53:11.950Z,6.75
2022-08-27T12:56:12.847Z,6.57
2022-08-27T12:59:10.708Z,6.15
2022-08-27T13:02:09.883Z,6.60
2022-08-27T13:04:56.377Z,6.47
2022-08-27T13:07:46.181Z,6.72
2022-08-27T13:10:32.938Z,6.28
2022-08-27T13:13:22.365Z,6.60
2022-08-27T13:16:10.414Z,6.68
2022-08-27T13:18:56.938Z,6.90
2022-08-27T13:21:49.681Z,5.57
2022-08-27T13:24:37.537Z,7.05
2022-08-27T13:27:29.168Z,5.97
2022-08-27T13:30:22.998Z,6.10
2022-08-27T13:33:25.986Z,6.63
2022-08-27T13:36:12.516Z,5.35
2022-08-27T13:38:59.919Z,6.30
2022-08-27T13:41:48.924Z,6.20
2022-08-27T13:44:37.246Z,6.95
2022-08-27T13:47:26.434Z,7.57
2022-08-27T13:50:22.636Z,8.23
2022-08-27T13:53:40.559Z,7.90
2022-08-27T13:56:29.403Z,8.75
2022-08-27T13:59:24.075Z,8.20
2022-08-27T14:02:22.532Z,9.82
2022-08-27T14:05:12.399Z,7.97
2022-08-27T14:08:02.866Z,8.45
2022-08-27T14:10:51.037Z,7.10
2022-08-27T14:13:43.709Z,6.63
2022-08-27T14:16:33.546Z,6.88
2022-08-27T14:19:27.599Z,7.13
2022-08-27T14:22:14.245Z,6.53
2022-08-27T14:25:02.669Z,6.80
2022-08-27T14:27:54.178Z,6.13
2022-08-27T14:30:41.508Z,5.88
2022-08-27T14:33:28.178Z,5.80
2022-08-27T14:36:15.977Z,6.30
2022-08-27T14:39:02.157Z,6.60
2022-08-27T14:41:50.165Z,6.20
2022-08-27T14:44:37.158Z,5.90
2022-08-27T14:47:27.174Z,15.88
2022-08-27T14:50:14.969Z,11.25
2022-08-27T14:53:01.485Z,6.15
2022-08-27T14:55:51.394Z,6.35
2022-08-27T14:58:39.867Z,5.75
2022-08-27T15:01:27.459Z,6.22
2022-08-27T15:04:14.442Z,5.45
2022-08-27T15:07:01.569Z,5.28
2022-08-27T15:09:48.134Z,5.07
2022-08-27T15:12:34.886Z,5.95
2022-08-27T15:15:23.062Z,12.60
2022-08-27T15:18:10.097Z,10.20
2022-08-27T15:20:56.859Z,5.97
2022-08-27T15:23:46.489Z,5.78
2022-08-27T15:26:34.632Z,6.22
2022-08-27T15:29:21.448Z,5.80
2022-08-27T15:32:11.336Z,5.60
2022-08-27T15:34:59.947Z,5.18
2022-08-27T15:37:46.565Z,5.45
2022-08-27T15:40:36.420Z,5.35
2022-08-27T15:43:23.218Z,5.63
2022-08-27T15:46:10.265Z,5.43
2022-08-27T15:48:58.008Z,5.10
2022-08-27T15:51:44.601Z,5.75
2022-08-27T15:54:31.013Z,5.55
2022-08-27T15:57:18.618Z,5.43
2022-08-27T16:00:06.770Z,5.68
2022-08-27T16:02:54.252Z,5.20
2022-08-27T16:05:45.170Z,5.68
2022-08-27T16:08:36.879Z,9.18
2022-08-27T16:11:29.188Z,5.75
2022-08-27T16:14:15.686Z,5.07
2022-08-27T16:17:02.855Z,5.82
2022-08-27T16:19:49.629Z,5.65
2022-08-27T16:22:37.743Z,6.40
2022-08-27T16:25:24.159Z,5.82
2022-08-27T16:28:10.607Z,5.70
2022-08-27T16:30:58.090Z,6.90
2022-08-27T16:33:44.976Z,5.93
2022-08-27T16:36:31.543Z,6.55
2022-08-27T16:39:19.257Z,6.03
2022-08-27T16:42:10.127Z,7.10
2022-08-27T16:44:56.665Z,5.45
2022-08-27T16:47:57.354Z,6.57
2022-08-27T16:50:43.988Z,6.40
2022-08-27T16:53:41.625Z,6.35
2022-08-27T16:56:31.805Z,6.70
2022-08-27T16:59:20.690Z,12.43
2022-08-27T17:02:09.239Z,7.47
2022-08-27T17:05:17.313Z,5.95
2022-08-27T17:08:02.841Z,6.63
2022-08-27T17:10:51.445Z,8.23
2022-08-27T17:13:39.588Z,6.75
2022-08-27T17:16:29.699Z,6.75
2022-08-27T17:19:18.566Z,6.28
2022-08-27T17:22:06.485Z,7.78
2022-08-27T17:24:52.666Z,6.55
2022-08-27T17:27:39.138Z,7.35
2022-08-27T17:30:27.130Z,7.68
2022-08-27T17:33:20.394Z,7.75
2022-08-27T17:36:08.886Z,10.30
2022-08-27T17:38:55.253Z,7.43
2022-08-27T17:41:43.209Z,6.50
2022-08-27T17:44:31.704Z,6.75
2022-08-27T17:47:20.696Z,7.32
2022-08-27T17:50:09.229Z,6.82
2022-08-27T17:52:55.329Z,12.80
2022-08-27T17:55:42.625Z,7.85
2022-08-27T17:58:28.837Z,7.07
2022-08-27T18:01:16.717Z,7.93
2022-08-27T18:04:05.559Z,7.43
2022-08-27T18:06:52.012Z,7.63
2022-08-27T18:09:38.389Z,8.20
2022-08-27T18:12:27.395Z,7.40
2022-08-27T18:15:19.633Z,6.93
2022-08-27T18:18:08.441Z,7.25
2022-08-27T18:20:56.678Z,8.27
2022-08-27T18:23:43.601Z,8.13
2022-08-27T18:26:31.150Z,7.70
2022-08-27T18:29:18.024Z,7.53
2022-08-27T18:32:05.223Z,8.85
2022-08-27T18:34:51.794Z,10.75
2022-08-27T18:37:39.621Z,6.97
2022-08-27T18:40:28.426Z,6.63
2022-08-27T18:43:15.578Z,7.30
2022-08-27T18:46:03.433Z,6.28
2022-08-27T18:48:50.209Z,6.63
2022-08-27T18:51:38.309Z,6.88
2022-08-27T18:54:27.254Z,6.20
2022-08-27T18:57:13.429Z,10.60
2022-08-27T18:59:59.968Z,9.15
2022-08-27T19:02:51.907Z,6.57
2022-08-27T19:05:38.722Z,6.60
2022-08-27T19:08:25.345Z,6.20
2022-08-27T19:11:13.325Z,6.30
2022-08-27T19:13:59.666Z,5.70
2022-08-27T19:16:50.145Z,6.63
2022-08-27T19:19:36.965Z,6.80
2022-08-27T19:22:24.053Z,5.95
2022-08-27T19:25:10.589Z,6.53
2022-08-27T19:27:58.458Z,6.10
2022-08-27T19:30:45.332Z,6.05
2022-08-27T19:33:31.929Z,13.68
2022-08-27T19:36:20.804Z,7.18
2022-08-27T19:39:07.833Z,5.90
2022-08-27T19:41:54.419Z,5.72
2022-08-27T19:44:42.061Z,5.85
2022-08-27T19:47:28.353Z,6.20
2022-08-27T19:50:17.432Z,5.93
2022-08-27T19:53:04.201Z,5.57
2022-08-27T19:55:50.814Z,6.45
2022-08-27T19:58:37.246Z,6.50
2022-08-27T20:01:25.072Z,6.43
2022-08-27T20:04:11.546Z,5.40
2022-08-27T20:06:58.142Z,5.97
2022-08-27T20:09:44.773Z,5.78
2022-08-27T20:12:31.003Z,6.20
2022-08-27T20:15:19.429Z,6.22
2022-08-27T20:18:07.872Z,6.00
2022-08-27T20:20:55.041Z,6.70
2022-08-27T20:23:41.290Z,6.28
2022-08-27T20:26:29.285Z,6.00
2022-08-27T20:29:32.171Z,5.55
2022-08-27T20:32:20.302Z,6.00
2022-08-27T20:35:09.771Z,6.32
2022-08-27T20:37:55.953Z,6.80
2022-08-27T20:40:42.106Z,7.70
2022-08-27T20:43:29.933Z,6.07
2022-08-27T20:46:17.225Z,5.68
2022-08-27T20:49:04.467Z,5.30
2022-08-27T20:52:03.170Z,5.40
2022-08-27T20:54:54.031Z,5.50
2022-08-27T20:58:06.360Z,5.10
2022-08-27T21:00:53.853Z,4.70
2022-08-27T21:03:40.479Z,4.95
2022-08-27T21:06:27.992Z,5.22
2022-08-27T21:09:16.974Z,4.72
2022-08-27T21:12:04.150Z,9.02
2022-08-27T21:14:51.162Z,5.35
2022-08-27T21:17:42.457Z,4.65
2022-08-27T21:20:28.865Z,4.68
2022-08-27T21:23:15.632Z,4.93
2022-08-27T21:26:06.238Z,4.97
2022-08-27T21:28:55.836Z,4.45
2022-08-27T21:31:42.457Z,4.85
2022-08-27T21:34:30.951Z,4.65
2022-08-27T21:37:17.562Z,4.30
2022-08-27T21:40:05.608Z,4.30
2022-08-27T21:42:53.722Z,5.18
2022-08-27T21:45:41.653Z,4.90
2022-08-27T21:48:28.873Z,5.03
2022-08-27T21:51:24.404Z,4.82
2022-08-27T21:54:11.590Z,4.63
2022-08-27T21:56:58.204Z,4.63
2022-08-27T21:59:48.211Z,4.60
2022-08-27T22:02:40.087Z,5.50
2022-08-27T22:05:26.990Z,5.32
2022-08-27T22:08:15.080Z,4.50
2022-08-27T22:11:02.421Z,8.80
2022-08-27T22:13:48.714Z,4.57
2022-08-27T22:16:37.410Z,4.70
2022-08-27T22:19:24.378Z,4.05
2022-08-27T22:22:10.824Z,4.50
2022-08-27T22:24:57.121Z,4.57
2022-08-27T22:27:43.676Z,4.50
2022-08-27T22:30:30.006Z,4.00
2022-08-27T22:33:18.848Z,4.13
2022-08-27T22:36:05.287Z,3.80
2022-08-27T22:38:51.625Z,4.40
2022-08-27T22:41:37.876Z,4.38
2022-08-27T22:44:29.404Z,4.07
2022-08-27T22:47:15.658Z,7.43
2022-08-27T22:50:04.509Z,5.70
2022-08-27T22:52:51.665Z,4.07
2022-08-27T22:55:38.278Z,4.53
2022-08-27T22:58:24.781Z,3.58
2022-08-27T23:01:11.147Z,3.83
2022-08-27T23:03:57.631Z,4.07
2022-08-27T23:06:45.657Z,3.83
2022-08-27T23:09:33.333Z,3.97
2022-08-27T23:12:20.030Z,21.15
2022-08-27T23:15:08.600Z,12.27
2022-08-27T23:17:55.424Z,3.95
2022-08-27T23:20:41.990Z,4.05
2022-08-27T23:23:30.800Z,3.92
2022-08-27T23:26:34.906Z,3.40
2022-08-27T23:29:22.933Z,3.47
2022-08-27T23:32:09.618Z,3.17
2022-08-27T23:34:56.169Z,3.20
2022-08-27T23:37:42.488Z,3.65
2022-08-27T23:40:30.277Z,3.55
2022-08-27T23:43:18.237Z,3.63
2022-08-27T23:46:05.255Z,3.67
2022-08-27T23:48:51.576Z,3.38
2022-08-27T23:51:37.786Z,3.53
2022-08-27T23:54:24.177Z,3.20
2022-08-27T23:57:11.721Z,3.13
2022-08-27T23:59:58.341Z,3.28
